Aviation Digital Data Service (ADDS)

Output produced by METARs form (1024 UTC 19 February 2019)
found at http://www.aviationweather.gov/metar/data/
 
METAR text: EHEH 191011Z AUTO 24012KT 220V300 9999 BKN016 10/05 Q1019 WHT 23012KT 9999 FEW014 SCT016
Conditions at: EHEH (EINDHOVEN RNLAFB, NL) observed 1011 UTC 19 February 2019
Temperature: 10.0°C (50°F)
Dewpoint: 5.0°C (41°F) [RH = 71%]
Pressure (altimeter): 30.09 inches Hg (1019.0 mb)
Winds: from the WSW (240 degrees) at 14 MPH (12 knots; 6.2 m/s)
Visibility: 6 or more miles (10+ km)
Ceiling: 1600 feet AGL
Clouds: broken clouds at 1600 feet AGL
few clouds at 1400 feet AGL
scattered clouds at 1600 feet AGL
Weather: no significant weather observed at this time

METAR text: EHEH 191007Z AUTO 24012KT 210V300 9999 SCT016 09/05 Q1019 WHT 23012KT 9999 FEW014 SCT016
Conditions at: EHEH (EINDHOVEN RNLAFB, NL) observed 1007 UTC 19 February 2019
Temperature: 9.0°C (48°F)
Dewpoint: 5.0°C (41°F) [RH = 76%]
Pressure (altimeter): 30.09 inches Hg (1019.0 mb)
Winds: from the WSW (240 degrees) at 14 MPH (12 knots; 6.2 m/s)
Visibility: 6 or more miles (10+ km)
Ceiling: at least 12,000 feet AGL
Clouds: scattered clouds at 1600 feet AGL
few clouds at 1400 feet AGL
scattered clouds at 1600 feet AGL
Weather: no significant weather observed at this time

METAR text: EHEH 190959Z AUTO 24012KT 190V280 9999 FEW014 SCT016 09/05 Q1019 WHT 23012KT 9999 FEW014 SCT016
Conditions at: EHEH (EINDHOVEN RNLAFB, NL) observed 0959 UTC 19 February 2019
Temperature: 9.0°C (48°F)
Dewpoint: 5.0°C (41°F) [RH = 76%]
Pressure (altimeter): 30.09 inches Hg (1019.0 mb)
Winds: from the WSW (240 degrees) at 14 MPH (12 knots; 6.2 m/s)
Visibility: 6 or more miles (10+ km)
Ceiling: at least 12,000 feet AGL
Clouds: few clouds at 1400 feet AGL
scattered clouds at 1600 feet AGL
few clouds at 1400 feet AGL
scattered clouds at 1600 feet AGL
Weather: no significant weather observed at this time

METAR text: EHEH 190955Z AUTO 24011KT 190V270 9999 FEW014 08/05 Q1019 BLU 23012KT 9999 FEW014 SCT016
Conditions at: EHEH (EINDHOVEN RNLAFB, NL) observed 0955 UTC 19 February 2019
Temperature: 8.0°C (46°F)
Dewpoint: 5.0°C (41°F) [RH = 81%]
Pressure (altimeter): 30.09 inches Hg (1019.0 mb)
Winds: from the WSW (240 degrees) at 13 MPH (11 knots; 5.7 m/s)
Visibility: 6 or more miles (10+ km)
Ceiling: at least 12,000 feet AGL
Clouds: few clouds at 1400 feet AGL
few clouds at 1400 feet AGL
scattered clouds at 1600 feet AGL
Weather: no significant weather observed at this time

METAR text: EHEH 190937Z AUTO 23012KT 210V270 9999 FEW012 08/05 Q1019 BLU 23012KT 9999 FEW012 SCT014
Conditions at: EHEH (EINDHOVEN RNLAFB, NL) observed 0937 UTC 19 February 2019
Temperature: 8.0°C (46°F)
Dewpoint: 5.0°C (41°F) [RH = 81%]
Pressure (altimeter): 30.09 inches Hg (1019.0 mb)
Winds: from the SW (230 degrees) at 14 MPH (12 knots; 6.2 m/s)
Visibility: 6 or more miles (10+ km)
Ceiling: at least 12,000 feet AGL
Clouds: few clouds at 1200 feet AGL
few clouds at 1200 feet AGL
scattered clouds at 1400 feet AGL
Weather: no significant weather observed at this time

METAR text: EHEH 190927Z AUTO 24011KT 190V280 9999 FEW013 08/05 Q1019 BLU 22012KT 9999 FEW010 SCT012
Conditions at: EHEH (EINDHOVEN RNLAFB, NL) observed 0927 UTC 19 February 2019
Temperature: 8.0°C (46°F)
Dewpoint: 5.0°C (41°F) [RH = 81%]
Pressure (altimeter): 30.09 inches Hg (1019.0 mb)
Winds: from the WSW (240 degrees) at 13 MPH (11 knots; 5.7 m/s)
Visibility: 6 or more miles (10+ km)
Ceiling: at least 12,000 feet AGL
Clouds: few clouds at 1300 feet AGL
few clouds at 1000 feet AGL
scattered clouds at 1200 feet AGL
Weather: no significant weather observed at this time

METAR text: EHEH 190925Z AUTO 24011KT 190V280 9999 FEW011 SCT014 08/05 Q1019 GRN 22012KT 9999 FEW010 SCT012
Conditions at: EHEH (EINDHOVEN RNLAFB, NL) observed 0925 UTC 19 February 2019
Temperature: 8.0°C (46°F)
Dewpoint: 5.0°C (41°F) [RH = 81%]
Pressure (altimeter): 30.09 inches Hg (1019.0 mb)
Winds: from the WSW (240 degrees) at 13 MPH (11 knots; 5.7 m/s)
Visibility: 6 or more miles (10+ km)
Ceiling: at least 12,000 feet AGL
Clouds: few clouds at 1100 feet AGL
scattered clouds at 1400 feet AGL
few clouds at 1000 feet AGL
scattered clouds at 1200 feet AGL
Weather: no significant weather observed at this time

METAR text: EHEH 190856Z AUTO 23013KT 200V270 9999 SCT010 BKN012 08/06 Q1019 GRN 22012KT 9999 FEW010 SCT012
Conditions at: EHEH (EINDHOVEN RNLAFB, NL) observed 0856 UTC 19 February 2019
Temperature: 8.0°C (46°F)
Dewpoint: 6.0°C (43°F) [RH = 87%]
Pressure (altimeter): 30.09 inches Hg (1019.0 mb)
Winds: from the SW (230 degrees) at 15 MPH (13 knots; 6.7 m/s)
Visibility: 6 or more miles (10+ km)
Ceiling: 1200 feet AGL
Clouds: scattered clouds at 1000 feet AGL
broken clouds at 1200 feet AGL
few clouds at 1000 feet AGL
scattered clouds at 1200 feet AGL
Weather: no significant weather observed at this time

METAR text: EHEH 190855Z AUTO 23013KT 200V260 9999 FEW010 SCT012 07/05 Q1019 GRN 22010KT 9999 FEW008 SCT010
Conditions at: EHEH (EINDHOVEN RNLAFB, NL) observed 0855 UTC 19 February 2019
Temperature: 7.0°C (45°F)
Dewpoint: 5.0°C (41°F) [RH = 87%]
Pressure (altimeter): 30.09 inches Hg (1019.0 mb)
Winds: from the SW (230 degrees) at 15 MPH (13 knots; 6.7 m/s)
Visibility: 6 or more miles (10+ km)
Ceiling: at least 12,000 feet AGL
Clouds: few clouds at 1000 feet AGL
scattered clouds at 1200 feet AGL
few clouds at 800 feet AGL
scattered clouds at 1000 feet AGL
Weather: no significant weather observed at this time

METAR text: EHEH 190844Z AUTO 23013KT 200V260 9000 BR FEW010 07/05 Q1018 BLU 22010KT 9999 FEW008 SCT010
Conditions at: EHEH (EINDHOVEN RNLAFB, NL) observed 0844 UTC 19 February 2019
Temperature: 7.0°C (45°F)
Dewpoint: 5.0°C (41°F) [RH = 87%]
Pressure (altimeter): 30.06 inches Hg (1018.0 mb)
Winds: from the SW (230 degrees) at 15 MPH (13 knots; 6.7 m/s)
Visibility: 6 or more miles (10+ km)
Ceiling: at least 12,000 feet AGL
Clouds: few clouds at 1000 feet AGL
few clouds at 800 feet AGL
scattered clouds at 1000 feet AGL
Weather: BR  (mist)

METAR text: EHEH 190833Z AUTO 22010KT 8000 BR FEW008 07/06 Q1018 BLU 22010KT CAVOK TEMPO SCT008
Conditions at: EHEH (EINDHOVEN RNLAFB, NL) observed 0833 UTC 19 February 2019
Temperature: 7.0°C (45°F)
Dewpoint: 6.0°C (43°F) [RH = 93%]
Pressure (altimeter): 30.06 inches Hg (1018.0 mb)
Winds: from the SW (220 degrees) at 12 MPH (10 knots; 5.1 m/s)
Visibility: 6 or more miles (10+ km)
Ceiling: at least 12,000 feet AGL
Clouds: few clouds at 800 feet AGL
Weather: BR  (mist)

METAR text: EHEH 190828Z AUTO 22009KT 7000 BR FEW008 07/06 Q1018 WHT 22010KT CAVOK TEMPO SCT008
Conditions at: EHEH (EINDHOVEN RNLAFB, NL) observed 0828 UTC 19 February 2019
Temperature: 7.0°C (45°F)
Dewpoint: 6.0°C (43°F) [RH = 93%]
Pressure (altimeter): 30.06 inches Hg (1018.0 mb)
Winds: from the SW (220 degrees) at 10 MPH (9 knots; 4.6 m/s)
Visibility: 6 or more miles (10+ km)
Ceiling: at least 12,000 feet AGL
Clouds: few clouds at 800 feet AGL
Weather: BR  (mist)

METAR text: EHEH 190825Z AUTO 22010KT 200V260 8000 BR NCD 07/05 Q1018 BLU 22010KT CAVOK TEMPO SCT008
Conditions at: EHEH (EINDHOVEN RNLAFB, NL) observed 0825 UTC 19 February 2019
Temperature: 7.0°C (45°F)
Dewpoint: 5.0°C (41°F) [RH = 87%]
Pressure (altimeter): 30.06 inches Hg (1018.0 mb)
Winds: from the SW (220 degrees) at 12 MPH (10 knots; 5.1 m/s)
Visibility: 6 or more miles (10+ km)
Ceiling: at least 12,000 feet AGL
Clouds: sky clear below 12,000 feet AGL
Weather: BR  (mist)

METAR text: EHEH 190819Z AUTO 22011KT 190V260 8000 BR FEW008 07/05 Q1018 BLU 22010KT CAVOK TEMPO SCT008
Conditions at: EHEH (EINDHOVEN RNLAFB, NL) observed 0819 UTC 19 February 2019
Temperature: 7.0°C (45°F)
Dewpoint: 5.0°C (41°F) [RH = 87%]
Pressure (altimeter): 30.06 inches Hg (1018.0 mb)
Winds: from the SW (220 degrees) at 13 MPH (11 knots; 5.7 m/s)
Visibility: 6 or more miles (10+ km)
Ceiling: at least 12,000 feet AGL
Clouds: few clouds at 800 feet AGL
Weather: BR  (mist)

METAR text: EHEH 190813Z AUTO 22010KT 7000 BR FEW008 06/05 Q1018 WHT 22010KT CAVOK TEMPO SCT008
Conditions at: EHEH (EINDHOVEN RNLAFB, NL) observed 0813 UTC 19 February 2019
Temperature: 6.0°C (43°F)
Dewpoint: 5.0°C (41°F) [RH = 93%]
Pressure (altimeter): 30.06 inches Hg (1018.0 mb)
Winds: from the SW (220 degrees) at 12 MPH (10 knots; 5.1 m/s)
Visibility: 6 or more miles (10+ km)
Ceiling: at least 12,000 feet AGL
Clouds: few clouds at 800 feet AGL
Weather: BR  (mist)

METAR text: EHEH 190811Z AUTO 22009KT 8000 BR FEW008 06/05 Q1018 BLU 22009KT CAVOK TEMPO SCT008
Conditions at: EHEH (EINDHOVEN RNLAFB, NL) observed 0811 UTC 19 February 2019
Temperature: 6.0°C (43°F)
Dewpoint: 5.0°C (41°F) [RH = 93%]
Pressure (altimeter): 30.06 inches Hg (1018.0 mb)
Winds: from the SW (220 degrees) at 10 MPH (9 knots; 4.6 m/s)
Visibility: 6 or more miles (10+ km)
Ceiling: at least 12,000 feet AGL
Clouds: few clouds at 800 feet AGL
Weather: BR  (mist)

METAR text: EHEH 190808Z AUTO 22009KT 7000 BR FEW007 06/05 Q1018 WHT 22009KT CAVOK TEMPO 6000 SCT007
Conditions at: EHEH (EINDHOVEN RNLAFB, NL) observed 0808 UTC 19 February 2019
Temperature: 6.0°C (43°F)
Dewpoint: 5.0°C (41°F) [RH = 93%]
Pressure (altimeter): 30.06 inches Hg (1018.0 mb)
Winds: from the SW (220 degrees) at 10 MPH (9 knots; 4.6 m/s)
Visibility: 6 or more miles (10+ km)
Ceiling: at least 12,000 feet AGL
Clouds: few clouds at 700 feet AGL
Weather: BR  (mist)

METAR text: EHEH 190755Z AUTO 22010KT 6000 BR BKN007 BKN008 06/05 Q1018 GRN 22009KT CAVOK TEMPO 6000 SCT007
Conditions at: EHEH (EINDHOVEN RNLAFB, NL) observed 0755 UTC 19 February 2019
Temperature: 6.0°C (43°F)
Dewpoint: 5.0°C (41°F) [RH = 93%]
Pressure (altimeter): 30.06 inches Hg (1018.0 mb)
Winds: from the SW (220 degrees) at 12 MPH (10 knots; 5.1 m/s)
Visibility: 6 or more miles (10+ km)
Ceiling: 700 feet AGL
Clouds: broken clouds at 700 feet AGL
broken clouds at 800 feet AGL
Weather: BR  (mist)

METAR text: EHEH 190747Z AUTO 22008KT 6000 BR BKN007 BKN008 06/05 Q1018 GRN 22009KT CAVOK TEMPO 6000 SCT007
Conditions at: EHEH (EINDHOVEN RNLAFB, NL) observed 0747 UTC 19 February 2019
Temperature: 6.0°C (43°F)
Dewpoint: 5.0°C (41°F) [RH = 93%]
Pressure (altimeter): 30.06 inches Hg (1018.0 mb)
Winds: from the SW (220 degrees) at 9 MPH (8 knots; 4.1 m/s)
Visibility: 6 or more miles (10+ km)
Ceiling: 700 feet AGL
Clouds: broken clouds at 700 feet AGL
broken clouds at 800 feet AGL
Weather: BR  (mist)

METAR text: EHEH 190743Z AUTO 22008KT 6000 BR SCT007 SCT009 05/05 Q1018 GRN 22009KT CAVOK TEMPO 6000 SCT007
Conditions at: EHEH (EINDHOVEN RNLAFB, NL) observed 0743 UTC 19 February 2019
Temperature: 5.0°C (41°F)
Dewpoint: 5.0°C (41°F) [RH = 100%]
Pressure (altimeter): 30.06 inches Hg (1018.0 mb)
Winds: from the SW (220 degrees) at 9 MPH (8 knots; 4.1 m/s)
Visibility: 6 or more miles (10+ km)
Ceiling: at least 12,000 feet AGL
Clouds: scattered clouds at 700 feet AGL
scattered clouds at 900 feet AGL
Weather: BR  (mist)

METAR text: EHEH 190740Z AUTO 22008KT 6000 BR SCT007 05/05 Q1018 GRN 23010KT CAVOK TEMPO 6000 SCT007
Conditions at: EHEH (EINDHOVEN RNLAFB, NL) observed 0740 UTC 19 February 2019
Temperature: 5.0°C (41°F)
Dewpoint: 5.0°C (41°F) [RH = 100%]
Pressure (altimeter): 30.06 inches Hg (1018.0 mb)
Winds: from the SW (220 degrees) at 9 MPH (8 knots; 4.1 m/s)
Visibility: 6 or more miles (10+ km)
Ceiling: at least 12,000 feet AGL
Clouds: scattered clouds at 700 feet AGL
Weather: BR  (mist)

METAR text: EHEH 190725Z AUTO 21009KT 6000 BR NCD 05/04 Q1018 WHT 23010KT CAVOK TEMPO 6000 SCT008
Conditions at: EHEH (EINDHOVEN RNLAFB, NL) observed 0725 UTC 19 February 2019
Temperature: 5.0°C (41°F)
Dewpoint: 4.0°C (39°F) [RH = 93%]
Pressure (altimeter): 30.06 inches Hg (1018.0 mb)
Winds: from the SSW (210 degrees) at 10 MPH (9 knots; 4.6 m/s)
Visibility: 6 or more miles (10+ km)
Ceiling: at least 12,000 feet AGL
Clouds: sky clear below 12,000 feet AGL
Weather: BR  (mist)

METAR text: EHEH 190707Z AUTO 22010KT 6000 BR FEW008 05/04 Q1018 WHT 23010KT CAVOK TEMPO 6000 SCT008
Conditions at: EHEH (EINDHOVEN RNLAFB, NL) observed 0707 UTC 19 February 2019
Temperature: 5.0°C (41°F)
Dewpoint: 4.0°C (39°F) [RH = 93%]
Pressure (altimeter): 30.06 inches Hg (1018.0 mb)
Winds: from the SW (220 degrees) at 12 MPH (10 knots; 5.1 m/s)
Visibility: 6 or more miles (10+ km)
Ceiling: at least 12,000 feet AGL
Clouds: few clouds at 800 feet AGL
Weather: BR  (mist)

METAR text: EHEH 190704Z AUTO 22010KT 6000 BR FEW008 05/04 Q1018 WHT 23010KT CAVOK TEMPO SCT008
Conditions at: EHEH (EINDHOVEN RNLAFB, NL) observed 0704 UTC 19 February 2019
Temperature: 5.0°C (41°F)
Dewpoint: 4.0°C (39°F) [RH = 93%]
Pressure (altimeter): 30.06 inches Hg (1018.0 mb)
Winds: from the SW (220 degrees) at 12 MPH (10 knots; 5.1 m/s)
Visibility: 6 or more miles (10+ km)
Ceiling: at least 12,000 feet AGL
Clouds: few clouds at 800 feet AGL
Weather: BR  (mist)

METAR text: EHEH 190659Z AUTO 22010KT 6000 BR FEW007 05/04 Q1017 WHT 23008KT CAVOK
Conditions at: EHEH (EINDHOVEN RNLAFB, NL) observed 0659 UTC 19 February 2019
Temperature: 5.0°C (41°F)
Dewpoint: 4.0°C (39°F) [RH = 93%]
Pressure (altimeter): 30.03 inches Hg (1017.0 mb)
Winds: from the SW (220 degrees) at 12 MPH (10 knots; 5.1 m/s)
Visibility: 6 or more miles (10+ km)
Ceiling: at least 12,000 feet AGL
Clouds: few clouds at 700 feet AGL
Weather: BR  (mist)

METAR text: EHEH 190655Z AUTO 22010KT 7000 BR FEW007 SCT008 05/05 Q1017 GRN 23008KT CAVOK
Conditions at: EHEH (EINDHOVEN RNLAFB, NL) observed 0655 UTC 19 February 2019
Temperature: 5.0°C (41°F)
Dewpoint: 5.0°C (41°F) [RH = 100%]
Pressure (altimeter): 30.03 inches Hg (1017.0 mb)
Winds: from the SW (220 degrees) at 12 MPH (10 knots; 5.1 m/s)
Visibility: 6 or more miles (10+ km)
Ceiling: at least 12,000 feet AGL
Clouds: few clouds at 700 feet AGL
scattered clouds at 800 feet AGL
Weather: BR  (mist)

METAR text: EHEH 190647Z AUTO 22009KT 7000 BR SCT007 05/05 Q1017 GRN 23008KT CAVOK
Conditions at: EHEH (EINDHOVEN RNLAFB, NL) observed 0647 UTC 19 February 2019
Temperature: 5.0°C (41°F)
Dewpoint: 5.0°C (41°F) [RH = 100%]
Pressure (altimeter): 30.03 inches Hg (1017.0 mb)
Winds: from the SW (220 degrees) at 10 MPH (9 knots; 4.6 m/s)
Visibility: 6 or more miles (10+ km)
Ceiling: at least 12,000 feet AGL
Clouds: scattered clouds at 700 feet AGL
Weather: BR  (mist)

METAR text: EHEH 190643Z AUTO 22009KT 7000 BR FEW008 05/04 Q1017 WHT 23008KT CAVOK
Conditions at: EHEH (EINDHOVEN RNLAFB, NL) observed 0643 UTC 19 February 2019
Temperature: 5.0°C (41°F)
Dewpoint: 4.0°C (39°F) [RH = 93%]
Pressure (altimeter): 30.03 inches Hg (1017.0 mb)
Winds: from the SW (220 degrees) at 10 MPH (9 knots; 4.6 m/s)
Visibility: 6 or more miles (10+ km)
Ceiling: at least 12,000 feet AGL
Clouds: few clouds at 800 feet AGL
Weather: BR  (mist)

METAR text: EHEH 190625Z AUTO 22008KT 200V260 9000 BR NCD 05/04 Q1017 BLU 23008KT CAVOK
Conditions at: EHEH (EINDHOVEN RNLAFB, NL) observed 0625 UTC 19 February 2019
Temperature: 5.0°C (41°F)
Dewpoint: 4.0°C (39°F) [RH = 93%]
Pressure (altimeter): 30.03 inches Hg (1017.0 mb)
Winds: from the SW (220 degrees) at 9 MPH (8 knots; 4.1 m/s)
Visibility: 6 or more miles (10+ km)
Ceiling: at least 12,000 feet AGL
Clouds: sky clear below 12,000 feet AGL
Weather: BR  (mist)

METAR text: EHEH 190555Z AUTO 23007KT 190V270 9999 OVC150 06/05 Q1017 BLU 23008KT CAVOK
Conditions at: EHEH (EINDHOVEN RNLAFB, NL) observed 0555 UTC 19 February 2019
Temperature: 6.0°C (43°F)
Dewpoint: 5.0°C (41°F) [RH = 93%]
Pressure (altimeter): 30.03 inches Hg (1017.0 mb)
Winds: from the SW (230 degrees) at 8 MPH (7 knots; 3.6 m/s)
Visibility: 6 or more miles (10+ km)
Ceiling: 15000 feet AGL
Clouds: overcast cloud deck at 15000 feet AGL
Weather: no significant weather observed at this time

METAR text: EHEH 190525Z AUTO 22007KT 9999 OVC130 06/05 Q1017 BLU 23008KT CAVOK
Conditions at: EHEH (EINDHOVEN RNLAFB, NL) observed 0525 UTC 19 February 2019
Temperature: 6.0°C (43°F)
Dewpoint: 5.0°C (41°F) [RH = 93%]
Pressure (altimeter): 30.03 inches Hg (1017.0 mb)
Winds: from the SW (220 degrees) at 8 MPH (7 knots; 3.6 m/s)
Visibility: 6 or more miles (10+ km)
Ceiling: 13000 feet AGL
Clouds: overcast cloud deck at 13000 feet AGL
Weather: no significant weather observed at this time

METAR text: EHEH 190455Z AUTO 23007KT 9999 OVC120 06/05 Q1017 BLU
Conditions at: EHEH (EINDHOVEN RNLAFB, NL) observed 0455 UTC 19 February 2019
Temperature: 6.0°C (43°F)
Dewpoint: 5.0°C (41°F) [RH = 93%]
Pressure (altimeter): 30.03 inches Hg (1017.0 mb)
Winds: from the SW (230 degrees) at 8 MPH (7 knots; 3.6 m/s)
Visibility: 6 or more miles (10+ km)
Ceiling: 12000 feet AGL
Clouds: overcast cloud deck at 12000 feet AGL
Weather: no significant weather observed at this time

METAR text: EHEH 190425Z AUTO 23008KT 200V260 9999 FEW099 OVC100 07/05 Q1016 BLU
Conditions at: EHEH (EINDHOVEN RNLAFB, NL) observed 0425 UTC 19 February 2019
Temperature: 7.0°C (45°F)
Dewpoint: 5.0°C (41°F) [RH = 87%]
Pressure (altimeter): 30.00 inches Hg (1016.0 mb)
Winds: from the SW (230 degrees) at 9 MPH (8 knots; 4.1 m/s)
Visibility: 6 or more miles (10+ km)
Ceiling: 10000 feet AGL
Clouds: few clouds at 9900 feet AGL
overcast cloud deck at 10000 feet AGL
Weather: no significant weather observed at this time

METAR text: EHEH 190355Z AUTO 24007KT 9999 OVC100 07/05 Q1016 BLU
Conditions at: EHEH (EINDHOVEN RNLAFB, NL) observed 0355 UTC 19 February 2019
Temperature: 7.0°C (45°F)
Dewpoint: 5.0°C (41°F) [RH = 87%]
Pressure (altimeter): 30.00 inches Hg (1016.0 mb)
Winds: from the WSW (240 degrees) at 8 MPH (7 knots; 3.6 m/s)
Visibility: 6 or more miles (10+ km)
Ceiling: 10000 feet AGL
Clouds: overcast cloud deck at 10000 feet AGL
Weather: no significant weather observed at this time

METAR text: EHEH 190325Z AUTO 23007KT 9999 FEW089 SCT094 OVC100 07/05 Q1016 BLU
Conditions at: EHEH (EINDHOVEN RNLAFB, NL) observed 0325 UTC 19 February 2019
Temperature: 7.0°C (45°F)
Dewpoint: 5.0°C (41°F) [RH = 87%]
Pressure (altimeter): 30.00 inches Hg (1016.0 mb)
Winds: from the SW (230 degrees) at 8 MPH (7 knots; 3.6 m/s)
Visibility: 6 or more miles (10+ km)
Ceiling: 10000 feet AGL
Clouds: few clouds at 8900 feet AGL
scattered clouds at 9400 feet AGL
overcast cloud deck at 10000 feet AGL
Weather: no significant weather observed at this time

METAR text: EHEH 190316Z AUTO 23007KT 200V260 9999 FEW014 SCT016 OVC100 07/05 Q1016 WHT
Conditions at: EHEH (EINDHOVEN RNLAFB, NL) observed 0316 UTC 19 February 2019
Temperature: 7.0°C (45°F)
Dewpoint: 5.0°C (41°F) [RH = 87%]
Pressure (altimeter): 30.00 inches Hg (1016.0 mb)
Winds: from the SW (230 degrees) at 8 MPH (7 knots; 3.6 m/s)
Visibility: 6 or more miles (10+ km)
Ceiling: 10000 feet AGL
Clouds: few clouds at 1400 feet AGL
scattered clouds at 1600 feet AGL
overcast cloud deck at 10000 feet AGL
Weather: no significant weather observed at this time

METAR text: EHEH 190307Z AUTO 23007KT 9999 SCT014 BKN090 OVC100 07/05 Q1016 GRN
Conditions at: EHEH (EINDHOVEN RNLAFB, NL) observed 0307 UTC 19 February 2019
Temperature: 7.0°C (45°F)
Dewpoint: 5.0°C (41°F) [RH = 87%]
Pressure (altimeter): 30.00 inches Hg (1016.0 mb)
Winds: from the SW (230 degrees) at 8 MPH (7 knots; 3.6 m/s)
Visibility: 6 or more miles (10+ km)
Ceiling: 9000 feet AGL
Clouds: scattered clouds at 1400 feet AGL
broken clouds at 9000 feet AGL
overcast cloud deck at 10000 feet AGL
Weather: no significant weather observed at this time

METAR text: EHEH 190306Z AUTO 23007KT 200V270 9999 FEW014 BKN087 OVC092 07/05 Q1016 BLU
Conditions at: EHEH (EINDHOVEN RNLAFB, NL) observed 0306 UTC 19 February 2019
Temperature: 7.0°C (45°F)
Dewpoint: 5.0°C (41°F) [RH = 87%]
Pressure (altimeter): 30.00 inches Hg (1016.0 mb)
Winds: from the SW (230 degrees) at 8 MPH (7 knots; 3.6 m/s)
Visibility: 6 or more miles (10+ km)
Ceiling: 8700 feet AGL
Clouds: few clouds at 1400 feet AGL
broken clouds at 8700 feet AGL
overcast cloud deck at 9200 feet AGL
Weather: no significant weather observed at this time

METAR text: EHEH 190300Z AUTO 23007KT 200V270 9999 SCT014 BKN087 OVC100 07/05 Q1016 GRN
Conditions at: EHEH (EINDHOVEN RNLAFB, NL) observed 0300 UTC 19 February 2019
Temperature: 7.0°C (45°F)
Dewpoint: 5.0°C (41°F) [RH = 87%]
Pressure (altimeter): 30.00 inches Hg (1016.0 mb)
Winds: from the SW (230 degrees) at 8 MPH (7 knots; 3.6 m/s)
Visibility: 6 or more miles (10+ km)
Ceiling: 8700 feet AGL
Clouds: scattered clouds at 1400 feet AGL
broken clouds at 8700 feet AGL
overcast cloud deck at 10000 feet AGL
Weather: no significant weather observed at this time

METAR text: EHEH 190255Z AUTO 23007KT 200V270 9999 FEW013 SCT017 OVC095 07/05 Q1016 WHT
Conditions at: EHEH (EINDHOVEN RNLAFB, NL) observed 0255 UTC 19 February 2019
Temperature: 7.0°C (45°F)
Dewpoint: 5.0°C (41°F) [RH = 87%]
Pressure (altimeter): 30.00 inches Hg (1016.0 mb)
Winds: from the SW (230 degrees) at 8 MPH (7 knots; 3.6 m/s)
Visibility: 6 or more miles (10+ km)
Ceiling: 9500 feet AGL
Clouds: few clouds at 1300 feet AGL
scattered clouds at 1700 feet AGL
overcast cloud deck at 9500 feet AGL
Weather: no significant weather observed at this time

METAR text: EHEH 190234Z AUTO 23007KT 200V260 9999 OVC014 07/05 Q1016 GRN
Conditions at: EHEH (EINDHOVEN RNLAFB, NL) observed 0234 UTC 19 February 2019
Temperature: 7.0°C (45°F)
Dewpoint: 5.0°C (41°F) [RH = 87%]
Pressure (altimeter): 30.00 inches Hg (1016.0 mb)
Winds: from the SW (230 degrees) at 8 MPH (7 knots; 3.6 m/s)
Visibility: 6 or more miles (10+ km)
Ceiling: 1400 feet AGL
Clouds: overcast cloud deck at 1400 feet AGL
Weather: no significant weather observed at this time

METAR text: EHEH 190231Z AUTO 23007KT 200V260 9999 OVC015 07/05 Q1016 WHT
Conditions at: EHEH (EINDHOVEN RNLAFB, NL) observed 0231 UTC 19 February 2019
Temperature: 7.0°C (45°F)
Dewpoint: 5.0°C (41°F) [RH = 87%]
Pressure (altimeter): 30.00 inches Hg (1016.0 mb)
Winds: from the SW (230 degrees) at 8 MPH (7 knots; 3.6 m/s)
Visibility: 6 or more miles (10+ km)
Ceiling: 1500 feet AGL
Clouds: overcast cloud deck at 1500 feet AGL
Weather: no significant weather observed at this time

METAR text: EHEH 190225Z AUTO 22005KT 9999 OVC015 07/05 Q1016 WHT
Conditions at: EHEH (EINDHOVEN RNLAFB, NL) observed 0225 UTC 19 February 2019
Temperature: 7.0°C (45°F)
Dewpoint: 5.0°C (41°F) [RH = 87%]
Pressure (altimeter): 30.00 inches Hg (1016.0 mb)
Winds: from the SW (220 degrees) at 6 MPH (5 knots; 2.6 m/s)
Visibility: 6 or more miles (10+ km)
Ceiling: 1500 feet AGL
Clouds: overcast cloud deck at 1500 feet AGL
Weather: no significant weather observed at this time

METAR text: EHEH 190214Z AUTO 23005KT 9999 BKN016 BKN061 OVC082 07/05 Q1016 WHT
Conditions at: EHEH (EINDHOVEN RNLAFB, NL) observed 0214 UTC 19 February 2019
Temperature: 7.0°C (45°F)
Dewpoint: 5.0°C (41°F) [RH = 87%]
Pressure (altimeter): 30.00 inches Hg (1016.0 mb)
Winds: from the SW (230 degrees) at 6 MPH (5 knots; 2.6 m/s)
Visibility: 6 or more miles (10+ km)
Ceiling: 1600 feet AGL
Clouds: broken clouds at 1600 feet AGL
broken clouds at 6100 feet AGL
overcast cloud deck at 8200 feet AGL
Weather: no significant weather observed at this time

METAR text: EHEH 190210Z AUTO 23005KT 9999 SCT016 SCT066 OVC080 07/05 Q1016 WHT
Conditions at: EHEH (EINDHOVEN RNLAFB, NL) observed 0210 UTC 19 February 2019
Temperature: 7.0°C (45°F)
Dewpoint: 5.0°C (41°F) [RH = 87%]
Pressure (altimeter): 30.00 inches Hg (1016.0 mb)
Winds: from the SW (230 degrees) at 6 MPH (5 knots; 2.6 m/s)
Visibility: 6 or more miles (10+ km)
Ceiling: 8000 feet AGL
Clouds: scattered clouds at 1600 feet AGL
scattered clouds at 6600 feet AGL
overcast cloud deck at 8000 feet AGL
Weather: no significant weather observed at this time

METAR text: EHEH 190155Z AUTO 22005KT 9999 FEW044 SCT049 BKN056 07/05 Q1016 BLU
Conditions at: EHEH (EINDHOVEN RNLAFB, NL) observed 0155 UTC 19 February 2019
Temperature: 7.0°C (45°F)
Dewpoint: 5.0°C (41°F) [RH = 87%]
Pressure (altimeter): 30.00 inches Hg (1016.0 mb)
Winds: from the SW (220 degrees) at 6 MPH (5 knots; 2.6 m/s)
Visibility: 6 or more miles (10+ km)
Ceiling: 5600 feet AGL
Clouds: few clouds at 4400 feet AGL
scattered clouds at 4900 feet AGL
broken clouds at 5600 feet AGL
Weather: no significant weather observed at this time

METAR text: EHEH 190125Z AUTO 25005KT 210V280 9999 SCT031 OVC036 08/05 Q1016 BLU
Conditions at: EHEH (EINDHOVEN RNLAFB, NL) observed 0125 UTC 19 February 2019
Temperature: 8.0°C (46°F)
Dewpoint: 5.0°C (41°F) [RH = 81%]
Pressure (altimeter): 30.00 inches Hg (1016.0 mb)
Winds: from the WSW (250 degrees) at 6 MPH (5 knots; 2.6 m/s)
Visibility: 6 or more miles (10+ km)
Ceiling: 3600 feet AGL
Clouds: scattered clouds at 3100 feet AGL
overcast cloud deck at 3600 feet AGL
Weather: no significant weather observed at this time

METAR text: EHEH 190106Z AUTO 26005KT 230V290 9999 BKN025 OVC028 08/05 Q1016 BLU
Conditions at: EHEH (EINDHOVEN RNLAFB, NL) observed 0106 UTC 19 February 2019
Temperature: 8.0°C (46°F)
Dewpoint: 5.0°C (41°F) [RH = 81%]
Pressure (altimeter): 30.00 inches Hg (1016.0 mb)
Winds: from the W (260 degrees) at 6 MPH (5 knots; 2.6 m/s)
Visibility: 6 or more miles (10+ km)
Ceiling: 2500 feet AGL
Clouds: broken clouds at 2500 feet AGL
overcast cloud deck at 2800 feet AGL
Weather: no significant weather observed at this time

METAR text: EHEH 190055Z AUTO 27004KT 240V310 9999 DZ OVC023 08/05 Q1016 WHT
Conditions at: EHEH (EINDHOVEN RNLAFB, NL) observed 0055 UTC 19 February 2019
Temperature: 8.0°C (46°F)
Dewpoint: 5.0°C (41°F) [RH = 81%]
Pressure (altimeter): 30.00 inches Hg (1016.0 mb)
Winds: from the W (270 degrees) at 5 MPH (4 knots; 2.1 m/s)
Visibility: 6 or more miles (10+ km)
Ceiling: 2300 feet AGL
Clouds: overcast cloud deck at 2300 feet AGL
Weather: DZ  (moderate drizzle)

METAR text: EHEH 190025Z AUTO 28007KT 240V330 9999 OVC019 08/05 Q1016 WHT
Conditions at: EHEH (EINDHOVEN RNLAFB, NL) observed 0025 UTC 19 February 2019
Temperature: 8.0°C (46°F)
Dewpoint: 5.0°C (41°F) [RH = 81%]
Pressure (altimeter): 30.00 inches Hg (1016.0 mb)
Winds: from the W (280 degrees) at 8 MPH (7 knots; 3.6 m/s)
Visibility: 6 or more miles (10+ km)
Ceiling: 1900 feet AGL
Clouds: overcast cloud deck at 1900 feet AGL
Weather: no significant weather observed at this time

METAR text: EHEH 190004Z AUTO 27007KT 230V310 9999 FEW012 OVC015 08/05 Q1016 WHT
Conditions at: EHEH (EINDHOVEN RNLAFB, NL) observed 0004 UTC 19 February 2019
Temperature: 8.0°C (46°F)
Dewpoint: 5.0°C (41°F) [RH = 81%]
Pressure (altimeter): 30.00 inches Hg (1016.0 mb)
Winds: from the W (270 degrees) at 8 MPH (7 knots; 3.6 m/s)
Visibility: 6 or more miles (10+ km)
Ceiling: 1500 feet AGL
Clouds: few clouds at 1200 feet AGL
overcast cloud deck at 1500 feet AGL
Weather: no significant weather observed at this time

METAR text: EHEH 182355Z AUTO 25008KT 220V290 9999 BKN012 OVC015 08/04 Q1016 GRN
Conditions at: EHEH (EINDHOVEN RNLAFB, NL) observed 2355 UTC 18 February 2019
Temperature: 8.0°C (46°F)
Dewpoint: 4.0°C (39°F) [RH = 76%]
Pressure (altimeter): 30.00 inches Hg (1016.0 mb)
Winds: from the WSW (250 degrees) at 9 MPH (8 knots; 4.1 m/s)
Visibility: 6 or more miles (10+ km)
Ceiling: 1200 feet AGL
Clouds: broken clouds at 1200 feet AGL
overcast cloud deck at 1500 feet AGL
Weather: no significant weather observed at this time

METAR text: EHEH 182345Z AUTO 24009KT 220V280 9999 BKN013 OVC018 08/04 Q1016 GRN
Conditions at: EHEH (EINDHOVEN RNLAFB, NL) observed 2345 UTC 18 February 2019
Temperature: 8.0°C (46°F)
Dewpoint: 4.0°C (39°F) [RH = 76%]
Pressure (altimeter): 30.00 inches Hg (1016.0 mb)
Winds: from the WSW (240 degrees) at 10 MPH (9 knots; 4.6 m/s)
Visibility: 6 or more miles (10+ km)
Ceiling: 1300 feet AGL
Clouds: broken clouds at 1300 feet AGL
overcast cloud deck at 1800 feet AGL
Weather: no significant weather observed at this time

METAR text: EHEH 182338Z AUTO 24009KT 220V280 9999 SCT013 OVC016 08/04 Q1016 GRN
Conditions at: EHEH (EINDHOVEN RNLAFB, NL) observed 2338 UTC 18 February 2019
Temperature: 8.0°C (46°F)
Dewpoint: 4.0°C (39°F) [RH = 76%]
Pressure (altimeter): 30.00 inches Hg (1016.0 mb)
Winds: from the WSW (240 degrees) at 10 MPH (9 knots; 4.6 m/s)
Visibility: 6 or more miles (10+ km)
Ceiling: 1600 feet AGL
Clouds: scattered clouds at 1300 feet AGL
overcast cloud deck at 1600 feet AGL
Weather: no significant weather observed at this time

METAR text: EHEH 182325Z AUTO 22008KT 9999 BKN018 BKN022 OVC130 06/03 Q1015 WHT
Conditions at: EHEH (EINDHOVEN RNLAFB, NL) observed 2325 UTC 18 February 2019
Temperature: 6.0°C (43°F)
Dewpoint: 3.0°C (37°F) [RH = 81%]
Pressure (altimeter): 29.97 inches Hg (1015.0 mb)
Winds: from the SW (220 degrees) at 9 MPH (8 knots; 4.1 m/s)
Visibility: 6 or more miles (10+ km)
Ceiling: 1800 feet AGL
Clouds: broken clouds at 1800 feet AGL
broken clouds at 2200 feet AGL
overcast cloud deck at 13000 feet AGL
Weather: no significant weather observed at this time

METAR text: EHEH 182320Z AUTO 22008KT 9999 SCT021 OVC130 06/03 Q1015 WHT
Conditions at: EHEH (EINDHOVEN RNLAFB, NL) observed 2320 UTC 18 February 2019
Temperature: 6.0°C (43°F)
Dewpoint: 3.0°C (37°F) [RH = 81%]
Pressure (altimeter): 29.97 inches Hg (1015.0 mb)
Winds: from the SW (220 degrees) at 9 MPH (8 knots; 4.1 m/s)
Visibility: 6 or more miles (10+ km)
Ceiling: 13000 feet AGL
Clouds: scattered clouds at 2100 feet AGL
overcast cloud deck at 13000 feet AGL
Weather: no significant weather observed at this time

METAR text: EHEH 182255Z AUTO 21007KT 9999 OVC180/// 07/03 Q1015 BLU
Conditions at: EHEH (EINDHOVEN RNLAFB, NL) observed 2255 UTC 18 February 2019
Temperature: 7.0°C (45°F)
Dewpoint: 3.0°C (37°F) [RH = 76%]
Pressure (altimeter): 29.97 inches Hg (1015.0 mb)
Winds: from the SSW (210 degrees) at 8 MPH (7 knots; 3.6 m/s)
Visibility: 6 or more miles (10+ km)
Ceiling: 18000 feet AGL
Clouds: overcast cloud deck at 18000 feet AGL
Weather: no significant weather observed at this time

METAR text: EHEH 182225Z AUTO 20006KT 9999 OVC170 08/03 Q1015 BLU
Conditions at: EHEH (EINDHOVEN RNLAFB, NL) observed 2225 UTC 18 February 2019
Temperature: 8.0°C (46°F)
Dewpoint: 3.0°C (37°F) [RH = 71%]
Pressure (altimeter): 29.97 inches Hg (1015.0 mb)
Winds: from the SSW (200 degrees) at 7 MPH (6 knots; 3.1 m/s)
Visibility: 6 or more miles (10+ km)
Ceiling: 17000 feet AGL
Clouds: overcast cloud deck at 17000 feet AGL
Weather: no significant weather observed at this time

METAR text: EHEH 182210Z AUTO 20007KT 9999 OVC170 08/03 Q1015 BLU
Conditions at: EHEH (EINDHOVEN RNLAFB, NL) observed 2210 UTC 18 February 2019
Temperature: 8.0°C (46°F)
Dewpoint: 3.0°C (37°F) [RH = 71%]
Pressure (altimeter): 29.97 inches Hg (1015.0 mb)
Winds: from the SSW (200 degrees) at 8 MPH (7 knots; 3.6 m/s)
Visibility: 6 or more miles (10+ km)
Ceiling: 17000 feet AGL
Clouds: overcast cloud deck at 17000 feet AGL
Weather: no significant weather observed at this time

METAR text: EHEH 182155Z AUTO 21007KT 9999 OVC170 08/03 Q1015 BLU 21008KT CAVOK
Conditions at: EHEH (EINDHOVEN RNLAFB, NL) observed 2155 UTC 18 February 2019
Temperature: 8.0°C (46°F)
Dewpoint: 3.0°C (37°F) [RH = 71%]
Pressure (altimeter): 29.97 inches Hg (1015.0 mb)
Winds: from the SSW (210 degrees) at 8 MPH (7 knots; 3.6 m/s)
Visibility: 6 or more miles (10+ km)
Ceiling: 17000 feet AGL
Clouds: overcast cloud deck at 17000 feet AGL
Weather: no significant weather observed at this time

METAR text: EHEH 182125Z AUTO 20007KT 9999 OVC170 09/03 Q1015 BLU 21008KT CAVOK
Conditions at: EHEH (EINDHOVEN RNLAFB, NL) observed 2125 UTC 18 February 2019
Temperature: 9.0°C (48°F)
Dewpoint: 3.0°C (37°F) [RH = 66%]
Pressure (altimeter): 29.97 inches Hg (1015.0 mb)
Winds: from the SSW (200 degrees) at 8 MPH (7 knots; 3.6 m/s)
Visibility: 6 or more miles (10+ km)
Ceiling: 17000 feet AGL
Clouds: overcast cloud deck at 17000 feet AGL
Weather: no significant weather observed at this time

METAR text: EHEH 182055Z AUTO 20008KT 9999 OVC180 09/03 Q1015 BLU 21008KT CAVOK
Conditions at: EHEH (EINDHOVEN RNLAFB, NL) observed 2055 UTC 18 February 2019
Temperature: 9.0°C (48°F)
Dewpoint: 3.0°C (37°F) [RH = 66%]
Pressure (altimeter): 29.97 inches Hg (1015.0 mb)
Winds: from the SSW (200 degrees) at 9 MPH (8 knots; 4.1 m/s)
Visibility: 6 or more miles (10+ km)
Ceiling: 18000 feet AGL
Clouds: overcast cloud deck at 18000 feet AGL
Weather: no significant weather observed at this time

METAR text: EHEH 182025Z AUTO 21008KT 9999 OVC170 08/03 Q1015 BLU 21008KT CAVOK
Conditions at: EHEH (EINDHOVEN RNLAFB, NL) observed 2025 UTC 18 February 2019
Temperature: 8.0°C (46°F)
Dewpoint: 3.0°C (37°F) [RH = 71%]
Pressure (altimeter): 29.97 inches Hg (1015.0 mb)
Winds: from the SSW (210 degrees) at 9 MPH (8 knots; 4.1 m/s)
Visibility: 6 or more miles (10+ km)
Ceiling: 17000 feet AGL
Clouds: overcast cloud deck at 17000 feet AGL
Weather: no significant weather observed at this time

METAR text: EHEH 181955Z AUTO 19006KT 170V230 9999 OVC170 08/03 Q1015 BLU 20006KT CAVOK
Conditions at: EHEH (EINDHOVEN RNLAFB, NL) observed 1955 UTC 18 February 2019
Temperature: 8.0°C (46°F)
Dewpoint: 3.0°C (37°F) [RH = 71%]
Pressure (altimeter): 29.97 inches Hg (1015.0 mb)
Winds: from the S (190 degrees) at 7 MPH (6 knots; 3.1 m/s)
Visibility: 6 or more miles (10+ km)
Ceiling: 17000 feet AGL
Clouds: overcast cloud deck at 17000 feet AGL
Weather: no significant weather observed at this time

METAR text: EHEH 181925Z AUTO 18003KT 9999 OVC180 06/03 Q1015 BLU 22004KT CAVOK
Conditions at: EHEH (EINDHOVEN RNLAFB, NL) observed 1925 UTC 18 February 2019
Temperature: 6.0°C (43°F)
Dewpoint: 3.0°C (37°F) [RH = 81%]
Pressure (altimeter): 29.97 inches Hg (1015.0 mb)
Winds: from the S (180 degrees) at 3 MPH (3 knots; 1.5 m/s)
Visibility: 6 or more miles (10+ km)
Ceiling: 18000 feet AGL
Clouds: overcast cloud deck at 18000 feet AGL
Weather: no significant weather observed at this time

METAR text: EHEH 181855Z AUTO 19003KT 160V220 9999 OVC180 06/02 Q1015 BLU 22004KT CAVOK
Conditions at: EHEH (EINDHOVEN RNLAFB, NL) observed 1855 UTC 18 February 2019
Temperature: 6.0°C (43°F)
Dewpoint: 2.0°C (36°F) [RH = 75%]
Pressure (altimeter): 29.97 inches Hg (1015.0 mb)
Winds: from the S (190 degrees) at 3 MPH (3 knots; 1.5 m/s)
Visibility: 6 or more miles (10+ km)
Ceiling: 18000 feet AGL
Clouds: overcast cloud deck at 18000 feet AGL
Weather: no significant weather observed at this time

METAR text: EHEH 181825Z AUTO 22003KT 9999 OVC190 07/02 Q1015 BLU 22004KT CAVOK
Conditions at: EHEH (EINDHOVEN RNLAFB, NL) observed 1825 UTC 18 February 2019
Temperature: 7.0°C (45°F)
Dewpoint: 2.0°C (36°F) [RH = 70%]
Pressure (altimeter): 29.97 inches Hg (1015.0 mb)
Winds: from the SW (220 degrees) at 3 MPH (3 knots; 1.5 m/s)
Visibility: 6 or more miles (10+ km)
Ceiling: 19000 feet AGL
Clouds: overcast cloud deck at 19000 feet AGL
Weather: no significant weather observed at this time

METAR text: EHEH 181755Z AUTO 19003KT 9999 SCT200 OVC330 07/02 Q1015 BLU 22006KT CAVOK
Conditions at: EHEH (EINDHOVEN RNLAFB, NL) observed 1755 UTC 18 February 2019
Temperature: 7.0°C (45°F)
Dewpoint: 2.0°C (36°F) [RH = 70%]
Pressure (altimeter): 29.97 inches Hg (1015.0 mb)
Winds: from the S (190 degrees) at 3 MPH (3 knots; 1.5 m/s)
Visibility: 6 or more miles (10+ km)
Ceiling: 33000 feet AGL
Clouds: scattered clouds at 20000 feet AGL
overcast cloud deck at 33000 feet AGL
Weather: no significant weather observed at this time

METAR text: EHEH 181725Z AUTO 20003KT 9999 OVC270 10/03 Q1015 BLU 22006KT CAVOK
Conditions at: EHEH (EINDHOVEN RNLAFB, NL) observed 1725 UTC 18 February 2019
Temperature: 10.0°C (50°F)
Dewpoint: 3.0°C (37°F) [RH = 62%]
Pressure (altimeter): 29.97 inches Hg (1015.0 mb)
Winds: from the SSW (200 degrees) at 3 MPH (3 knots; 1.5 m/s)
Visibility: 6 or more miles (10+ km)
Ceiling: 27000 feet AGL
Clouds: overcast cloud deck at 27000 feet AGL
Weather: no significant weather observed at this time

METAR text: EHEH 181655Z AUTO 22005KT 220V280 9999 OVC200 11/03 Q1015 BLU 22006KT CAVOK
Conditions at: EHEH (EINDHOVEN RNLAFB, NL) observed 1655 UTC 18 February 2019
Temperature: 11.0°C (52°F)
Dewpoint: 3.0°C (37°F) [RH = 58%]
Pressure (altimeter): 29.97 inches Hg (1015.0 mb)
Winds: from the SW (220 degrees) at 6 MPH (5 knots; 2.6 m/s)
Visibility: 6 or more miles (10+ km)
Ceiling: 20000 feet AGL
Clouds: overcast cloud deck at 20000 feet AGL
Weather: no significant weather observed at this time

METAR text: EHEH 181625Z AUTO 24005KT 220V290 9999 OVC250 13/03 Q1015 BLU 22006KT CAVOK
Conditions at: EHEH (EINDHOVEN RNLAFB, NL) observed 1625 UTC 18 February 2019
Temperature: 13.0°C (55°F)
Dewpoint: 3.0°C (37°F) [RH = 51%]
Pressure (altimeter): 29.97 inches Hg (1015.0 mb)
Winds: from the WSW (240 degrees) at 6 MPH (5 knots; 2.6 m/s)
Visibility: 6 or more miles (10+ km)
Ceiling: 25000 feet AGL
Clouds: overcast cloud deck at 25000 feet AGL
Weather: no significant weather observed at this time

METAR text: EHEH 181555Z AUTO 25004KT 210V280 9999 OVC260 15/03 Q1015 BLU 22006KT CAVOK
Conditions at: EHEH (EINDHOVEN RNLAFB, NL) observed 1555 UTC 18 February 2019
Temperature: 15.0°C (59°F)
Dewpoint: 3.0°C (37°F) [RH = 44%]
Pressure (altimeter): 29.97 inches Hg (1015.0 mb)
Winds: from the WSW (250 degrees) at 5 MPH (4 knots; 2.1 m/s)
Visibility: 6 or more miles (10+ km)
Ceiling: 26000 feet AGL
Clouds: overcast cloud deck at 26000 feet AGL
Weather: no significant weather observed at this time

METAR text: EHEH 181525Z AUTO 24006KT 230V310 9999 OVC280 15/03 Q1015 BLU 22006KT CAVOK
Conditions at: EHEH (EINDHOVEN RNLAFB, NL) observed 1525 UTC 18 February 2019
Temperature: 15.0°C (59°F)
Dewpoint: 3.0°C (37°F) [RH = 44%]
Pressure (altimeter): 29.97 inches Hg (1015.0 mb)
Winds: from the WSW (240 degrees) at 7 MPH (6 knots; 3.1 m/s)
Visibility: 6 or more miles (10+ km)
Ceiling: 28000 feet AGL
Clouds: overcast cloud deck at 28000 feet AGL
Weather: no significant weather observed at this time

METAR text: EHEH 181455Z AUTO 22007KT 210V280 9999 OVC310 16/02 Q1015 BLU 20007KT CAVOK
Conditions at: EHEH (EINDHOVEN RNLAFB, NL) observed 1455 UTC 18 February 2019
Temperature: 16.0°C (61°F)
Dewpoint: 2.0°C (36°F) [RH = 39%]
Pressure (altimeter): 29.97 inches Hg (1015.0 mb)
Winds: from the SW (220 degrees) at 8 MPH (7 knots; 3.6 m/s)
Visibility: 6 or more miles (10+ km)
Ceiling: 31000 feet AGL
Clouds: overcast cloud deck at 31000 feet AGL
Weather: no significant weather observed at this time

METAR text: EHEH 181425Z AUTO 21007KT 180V250 9999 OVC310 16/01 Q1015 BLU 20007KT CAVOK
Conditions at: EHEH (EINDHOVEN RNLAFB, NL) observed 1425 UTC 18 February 2019
Temperature: 16.0°C (61°F)
Dewpoint: 1.0°C (34°F) [RH = 36%]
Pressure (altimeter): 29.97 inches Hg (1015.0 mb)
Winds: from the SSW (210 degrees) at 8 MPH (7 knots; 3.6 m/s)
Visibility: 6 or more miles (10+ km)
Ceiling: 31000 feet AGL
Clouds: overcast cloud deck at 31000 feet AGL
Weather: no significant weather observed at this time

METAR text: EHEH 181355Z AUTO 22007KT 150V240 9999 OVC310 16/01 Q1015 BLU 20007KT CAVOK
Conditions at: EHEH (EINDHOVEN RNLAFB, NL) observed 1355 UTC 18 February 2019
Temperature: 16.0°C (61°F)
Dewpoint: 1.0°C (34°F) [RH = 36%]
Pressure (altimeter): 29.97 inches Hg (1015.0 mb)
Winds: from the SW (220 degrees) at 8 MPH (7 knots; 3.6 m/s)
Visibility: 6 or more miles (10+ km)
Ceiling: 31000 feet AGL
Clouds: overcast cloud deck at 31000 feet AGL
Weather: no significant weather observed at this time

METAR text: EHEH 181325Z AUTO 18006KT 160V230 9999 OVC300 16/02 Q1015 BLU 20007KT CAVOK
Conditions at: EHEH (EINDHOVEN RNLAFB, NL) observed 1325 UTC 18 February 2019
Temperature: 16.0°C (61°F)
Dewpoint: 2.0°C (36°F) [RH = 39%]
Pressure (altimeter): 29.97 inches Hg (1015.0 mb)
Winds: from the S (180 degrees) at 7 MPH (6 knots; 3.1 m/s)
Visibility: 6 or more miles (10+ km)
Ceiling: 30000 feet AGL
Clouds: overcast cloud deck at 30000 feet AGL
Weather: no significant weather observed at this time

METAR text: EHEH 181255Z AUTO 22006KT 190V250 9999 OVC310 16/03 Q1016 BLU 20007KT CAVOK
Conditions at: EHEH (EINDHOVEN RNLAFB, NL) observed 1255 UTC 18 February 2019
Temperature: 16.0°C (61°F)
Dewpoint: 3.0°C (37°F) [RH = 42%]
Pressure (altimeter): 30.00 inches Hg (1016.0 mb)
Winds: from the SW (220 degrees) at 7 MPH (6 knots; 3.1 m/s)
Visibility: 6 or more miles (10+ km)
Ceiling: 31000 feet AGL
Clouds: overcast cloud deck at 31000 feet AGL
Weather: no significant weather observed at this time

METAR text: EHEH 181225Z AUTO 20007KT 160V240 9999 OVC290 15/02 Q1016 BLU 20007KT CAVOK
Conditions at: EHEH (EINDHOVEN RNLAFB, NL) observed 1225 UTC 18 February 2019
Temperature: 15.0°C (59°F)
Dewpoint: 2.0°C (36°F) [RH = 41%]
Pressure (altimeter): 30.00 inches Hg (1016.0 mb)
Winds: from the SSW (200 degrees) at 8 MPH (7 knots; 3.6 m/s)
Visibility: 6 or more miles (10+ km)
Ceiling: 29000 feet AGL
Clouds: overcast cloud deck at 29000 feet AGL
Weather: no significant weather observed at this time

METAR text: EHEH 181155Z AUTO 20009KT 170V230 9999 OVC290 15/02 Q1017 BLU 20007KT CAVOK
Conditions at: EHEH (EINDHOVEN RNLAFB, NL) observed 1155 UTC 18 February 2019
Temperature: 15.0°C (59°F)
Dewpoint: 2.0°C (36°F) [RH = 41%]
Pressure (altimeter): 30.03 inches Hg (1017.0 mb)
Winds: from the SSW (200 degrees) at 10 MPH (9 knots; 4.6 m/s)
Visibility: 6 or more miles (10+ km)
Ceiling: 29000 feet AGL
Clouds: overcast cloud deck at 29000 feet AGL
Weather: no significant weather observed at this time

METAR text: EHEH 181125Z AUTO 19007KT 9999 OVC330 14/02 Q1017 BLU 20007KT CAVOK
Conditions at: EHEH (EINDHOVEN RNLAFB, NL) observed 1125 UTC 18 February 2019
Temperature: 14.0°C (57°F)
Dewpoint: 2.0°C (36°F) [RH = 44%]
Pressure (altimeter): 30.03 inches Hg (1017.0 mb)
Winds: from the S (190 degrees) at 8 MPH (7 knots; 3.6 m/s)
Visibility: 6 or more miles (10+ km)
Ceiling: 33000 feet AGL
Clouds: overcast cloud deck at 33000 feet AGL
Weather: no significant weather observed at this time

METAR text: EHEH 181055Z AUTO 20006KT 160V240 9999 NCD 14/03 Q1017 BLU 21007KT CAVOK
Conditions at: EHEH (EINDHOVEN RNLAFB, NL) observed 1055 UTC 18 February 2019
Temperature: 14.0°C (57°F)
Dewpoint: 3.0°C (37°F) [RH = 47%]
Pressure (altimeter): 30.03 inches Hg (1017.0 mb)
Winds: from the SSW (200 degrees) at 7 MPH (6 knots; 3.1 m/s)
Visibility: 6 or more miles (10+ km)
Ceiling: at least 12,000 feet AGL
Clouds: sky clear below 12,000 feet AGL
Weather: no significant weather observed at this time

METAR text: EHEH 181025Z AUTO 22007KT 9999 NCD 12/02 Q1018 BLU 21007KT CAVOK
Conditions at: EHEH (EINDHOVEN RNLAFB, NL) observed 1025 UTC 18 February 2019
Temperature: 12.0°C (54°F)
Dewpoint: 2.0°C (36°F) [RH = 50%]
Pressure (altimeter): 30.06 inches Hg (1018.0 mb)
Winds: from the SW (220 degrees) at 8 MPH (7 knots; 3.6 m/s)
Visibility: 6 or more miles (10+ km)
Ceiling: at least 12,000 feet AGL
Clouds: sky clear below 12,000 feet AGL
Weather: no significant weather observed at this time

METAR text: EHEH 180955Z AUTO 20006KT 9999 NCD 11/02 Q1018 BLU 21007KT CAVOK
Conditions at: EHEH (EINDHOVEN RNLAFB, NL) observed 0955 UTC 18 February 2019
Temperature: 11.0°C (52°F)
Dewpoint: 2.0°C (36°F) [RH = 54%]
Pressure (altimeter): 30.06 inches Hg (1018.0 mb)
Winds: from the SSW (200 degrees) at 7 MPH (6 knots; 3.1 m/s)
Visibility: 6 or more miles (10+ km)
Ceiling: at least 12,000 feet AGL
Clouds: sky clear below 12,000 feet AGL
Weather: no significant weather observed at this time

METAR text: EHEH 180925Z AUTO 20005KT 170V230 9999 NCD 10/01 Q1018 BLU 18005KT CAVOK
Conditions at: EHEH (EINDHOVEN RNLAFB, NL) observed 0925 UTC 18 February 2019
Temperature: 10.0°C (50°F)
Dewpoint: 1.0°C (34°F) [RH = 53%]
Pressure (altimeter): 30.06 inches Hg (1018.0 mb)
Winds: from the SSW (200 degrees) at 6 MPH (5 knots; 2.6 m/s)
Visibility: 6 or more miles (10+ km)
Ceiling: at least 12,000 feet AGL
Clouds: sky clear below 12,000 feet AGL
Weather: no significant weather observed at this time

METAR text: EHEH 180855Z AUTO 21004KT 180V250 9999 NCD 08/01 Q1018 BLU 18005KT CAVOK
Conditions at: EHEH (EINDHOVEN RNLAFB, NL) observed 0855 UTC 18 February 2019
Temperature: 8.0°C (46°F)
Dewpoint: 1.0°C (34°F) [RH = 61%]
Pressure (altimeter): 30.06 inches Hg (1018.0 mb)
Winds: from the SSW (210 degrees) at 5 MPH (4 knots; 2.1 m/s)
Visibility: 6 or more miles (10+ km)
Ceiling: at least 12,000 feet AGL
Clouds: sky clear below 12,000 feet AGL
Weather: no significant weather observed at this time

METAR text: EHEH 180825Z AUTO 20003KT 150V230 9999 NCD 06/01 Q1018 BLU 18005KT CAVOK
Conditions at: EHEH (EINDHOVEN RNLAFB, NL) observed 0825 UTC 18 February 2019
Temperature: 6.0°C (43°F)
Dewpoint: 1.0°C (34°F) [RH = 70%]
Pressure (altimeter): 30.06 inches Hg (1018.0 mb)
Winds: from the SSW (200 degrees) at 3 MPH (3 knots; 1.5 m/s)
Visibility: 6 or more miles (10+ km)
Ceiling: at least 12,000 feet AGL
Clouds: sky clear below 12,000 feet AGL
Weather: no significant weather observed at this time

METAR text: EHEH 180755Z AUTO 15003KT 130V210 9999 NCD 03/M00 Q1018 BLU 18005KT CAVOK
Conditions at: EHEH (EINDHOVEN RNLAFB, NL) observed 0755 UTC 18 February 2019
Temperature: 3.0°C (37°F)
Dewpoint: 0.0°C (32°F) [RH = 81%]
Pressure (altimeter): 30.06 inches Hg (1018.0 mb)
Winds: from the SSE (150 degrees) at 3 MPH (3 knots; 1.5 m/s)
Visibility: 6 or more miles (10+ km)
Ceiling: at least 12,000 feet AGL
Clouds: sky clear below 12,000 feet AGL
Weather: no significant weather observed at this time

METAR text: EHEH 180725Z AUTO 16003KT 150V230 9999 NCD 02/M01 Q1018 BLU 18005KT CAVOK
Conditions at: EHEH (EINDHOVEN RNLAFB, NL) observed 0725 UTC 18 February 2019
Temperature: 2.0°C (36°F)
Dewpoint: -1.0°C (30°F) [RH = 80%]
Pressure (altimeter): 30.06 inches Hg (1018.0 mb)
Winds: from the SSE (160 degrees) at 3 MPH (3 knots; 1.5 m/s)
Visibility: 6 or more miles (10+ km)
Ceiling: at least 12,000 feet AGL
Clouds: sky clear below 12,000 feet AGL
Weather: no significant weather observed at this time

METAR text: EHEH 180655Z AUTO 15003KT 9999 SCT390 02/M01 Q1018 BLU 18005KT CAVOK
Conditions at: EHEH (EINDHOVEN RNLAFB, NL) observed 0655 UTC 18 February 2019
Temperature: 2.0°C (36°F)
Dewpoint: -1.0°C (30°F) [RH = 80%]
Pressure (altimeter): 30.06 inches Hg (1018.0 mb)
Winds: from the SSE (150 degrees) at 3 MPH (3 knots; 1.5 m/s)
Visibility: 6 or more miles (10+ km)
Ceiling: at least 12,000 feet AGL
Clouds: scattered clouds at 39000 feet AGL
Weather: no significant weather observed at this time

METAR text: EHEH 180625Z AUTO 15003KT 150V210 9999 NCD 03/M01 Q1018 BLU 18005KT CAVOK
Conditions at: EHEH (EINDHOVEN RNLAFB, NL) observed 0625 UTC 18 February 2019
Temperature: 3.0°C (37°F)
Dewpoint: -1.0°C (30°F) [RH = 75%]
Pressure (altimeter): 30.06 inches Hg (1018.0 mb)
Winds: from the SSE (150 degrees) at 3 MPH (3 knots; 1.5 m/s)
Visibility: 6 or more miles (10+ km)
Ceiling: at least 12,000 feet AGL
Clouds: sky clear below 12,000 feet AGL
Weather: no significant weather observed at this time

METAR text: EHEH 180555Z AUTO VRB02KT 9999 NCD 02/M01 Q1018 BLU 18005KT CAVOK
Conditions at: EHEH (EINDHOVEN RNLAFB, NL) observed 0555 UTC 18 February 2019
Temperature: 2.0°C (36°F)
Dewpoint: -1.0°C (30°F) [RH = 80%]
Pressure (altimeter): 30.06 inches Hg (1018.0 mb)
Winds: variable direction winds at 2 MPH (2 knots; 1.0 m/s)
Visibility: 6 or more miles (10+ km)
Ceiling: at least 12,000 feet AGL
Clouds: sky clear below 12,000 feet AGL
Weather: no significant weather observed at this time

METAR text: EHEH 180525Z AUTO 16003KT 130V220 9999 NCD 02/M01 Q1018 BLU 18005KT CAVOK
Conditions at: EHEH (EINDHOVEN RNLAFB, NL) observed 0525 UTC 18 February 2019
Temperature: 2.0°C (36°F)
Dewpoint: -1.0°C (30°F) [RH = 80%]
Pressure (altimeter): 30.06 inches Hg (1018.0 mb)
Winds: from the SSE (160 degrees) at 3 MPH (3 knots; 1.5 m/s)
Visibility: 6 or more miles (10+ km)
Ceiling: at least 12,000 feet AGL
Clouds: sky clear below 12,000 feet AGL
Weather: no significant weather observed at this time

METAR text: EHEH 180455Z AUTO 15004KT 9999 NCD 02/M01 Q1018 BLU
Conditions at: EHEH (EINDHOVEN RNLAFB, NL) observed 0455 UTC 18 February 2019
Temperature: 2.0°C (36°F)
Dewpoint: -1.0°C (30°F) [RH = 80%]
Pressure (altimeter): 30.06 inches Hg (1018.0 mb)
Winds: from the SSE (150 degrees) at 5 MPH (4 knots; 2.1 m/s)
Visibility: 6 or more miles (10+ km)
Ceiling: at least 12,000 feet AGL
Clouds: sky clear below 12,000 feet AGL
Weather: no significant weather observed at this time

METAR text: EHEH 180425Z AUTO 14004KT 120V190 9999 NCD 02/M02 Q1018 BLU
Conditions at: EHEH (EINDHOVEN RNLAFB, NL) observed 0425 UTC 18 February 2019
Temperature: 2.0°C (36°F)
Dewpoint: -2.0°C (28°F) [RH = 75%]
Pressure (altimeter): 30.06 inches Hg (1018.0 mb)
Winds: from the SE (140 degrees) at 5 MPH (4 knots; 2.1 m/s)
Visibility: 6 or more miles (10+ km)
Ceiling: at least 12,000 feet AGL
Clouds: sky clear below 12,000 feet AGL
Weather: no significant weather observed at this time

METAR text: EHEH 180355Z AUTO 14003KT 9999 NCD 03/M01 Q1018 BLU
Conditions at: EHEH (EINDHOVEN RNLAFB, NL) observed 0355 UTC 18 February 2019
Temperature: 3.0°C (37°F)
Dewpoint: -1.0°C (30°F) [RH = 75%]
Pressure (altimeter): 30.06 inches Hg (1018.0 mb)
Winds: from the SE (140 degrees) at 3 MPH (3 knots; 1.5 m/s)
Visibility: 6 or more miles (10+ km)
Ceiling: at least 12,000 feet AGL
Clouds: sky clear below 12,000 feet AGL
Weather: no significant weather observed at this time

METAR text: EHEH 180325Z AUTO 15004KT 130V190 9999 NCD 03/M01 Q1018 BLU
Conditions at: EHEH (EINDHOVEN RNLAFB, NL) observed 0325 UTC 18 February 2019
Temperature: 3.0°C (37°F)
Dewpoint: -1.0°C (30°F) [RH = 75%]
Pressure (altimeter): 30.06 inches Hg (1018.0 mb)
Winds: from the SSE (150 degrees) at 5 MPH (4 knots; 2.1 m/s)
Visibility: 6 or more miles (10+ km)
Ceiling: at least 12,000 feet AGL
Clouds: sky clear below 12,000 feet AGL
Weather: no significant weather observed at this time

METAR text: EHEH 180255Z AUTO 14003KT 9999 NCD 03/M01 Q1019 BLU
Conditions at: EHEH (EINDHOVEN RNLAFB, NL) observed 0255 UTC 18 February 2019
Temperature: 3.0°C (37°F)
Dewpoint: -1.0°C (30°F) [RH = 75%]
Pressure (altimeter): 30.09 inches Hg (1019.0 mb)
Winds: from the SE (140 degrees) at 3 MPH (3 knots; 1.5 m/s)
Visibility: 6 or more miles (10+ km)
Ceiling: at least 12,000 feet AGL
Clouds: sky clear below 12,000 feet AGL
Weather: no significant weather observed at this time

METAR text: EHEH 180225Z AUTO 14003KT 9999 NCD 03/M01 Q1019 BLU
Conditions at: EHEH (EINDHOVEN RNLAFB, NL) observed 0225 UTC 18 February 2019
Temperature: 3.0°C (37°F)
Dewpoint: -1.0°C (30°F) [RH = 75%]
Pressure (altimeter): 30.09 inches Hg (1019.0 mb)
Winds: from the SE (140 degrees) at 3 MPH (3 knots; 1.5 m/s)
Visibility: 6 or more miles (10+ km)
Ceiling: at least 12,000 feet AGL
Clouds: sky clear below 12,000 feet AGL
Weather: no significant weather observed at this time

METAR text: EHEH 180155Z AUTO 15003KT 9999 NCD 02/M02 Q1019 BLU
Conditions at: EHEH (EINDHOVEN RNLAFB, NL) observed 0155 UTC 18 February 2019
Temperature: 2.0°C (36°F)
Dewpoint: -2.0°C (28°F) [RH = 75%]
Pressure (altimeter): 30.09 inches Hg (1019.0 mb)
Winds: from the SSE (150 degrees) at 3 MPH (3 knots; 1.5 m/s)
Visibility: 6 or more miles (10+ km)
Ceiling: at least 12,000 feet AGL
Clouds: sky clear below 12,000 feet AGL
Weather: no significant weather observed at this time

METAR text: EHEH 180125Z AUTO 15003KT 9999 NCD 02/M02 Q1019 BLU
Conditions at: EHEH (EINDHOVEN RNLAFB, NL) observed 0125 UTC 18 February 2019
Temperature: 2.0°C (36°F)
Dewpoint: -2.0°C (28°F) [RH = 75%]
Pressure (altimeter): 30.09 inches Hg (1019.0 mb)
Winds: from the SSE (150 degrees) at 3 MPH (3 knots; 1.5 m/s)
Visibility: 6 or more miles (10+ km)
Ceiling: at least 12,000 feet AGL
Clouds: sky clear below 12,000 feet AGL
Weather: no significant weather observed at this time

METAR text: EHEH 180055Z AUTO 17002KT 9999 BKN380 04/M01 Q1019 BLU
Conditions at: EHEH (EINDHOVEN RNLAFB, NL) observed 0055 UTC 18 February 2019
Temperature: 4.0°C (39°F)
Dewpoint: -1.0°C (30°F) [RH = 70%]
Pressure (altimeter): 30.09 inches Hg (1019.0 mb)
Winds: from the S (170 degrees) at 2 MPH (2 knots; 1.0 m/s)
Visibility: 6 or more miles (10+ km)
Ceiling: 38000 feet AGL
Clouds: broken clouds at 38000 feet AGL
Weather: no significant weather observed at this time

METAR text: EHEH 180025Z AUTO 20003KT 9999 NCD 05/M01 Q1019 BLU
Conditions at: EHEH (EINDHOVEN RNLAFB, NL) observed 0025 UTC 18 February 2019
Temperature: 5.0°C (41°F)
Dewpoint: -1.0°C (30°F) [RH = 65%]
Pressure (altimeter): 30.09 inches Hg (1019.0 mb)
Winds: from the SSW (200 degrees) at 3 MPH (3 knots; 1.5 m/s)
Visibility: 6 or more miles (10+ km)
Ceiling: at least 12,000 feet AGL
Clouds: sky clear below 12,000 feet AGL
Weather: no significant weather observed at this time

METAR text: EHEH 172355Z AUTO 20004KT 9999 NCD 06/M01 Q1019 BLU
Conditions at: EHEH (EINDHOVEN RNLAFB, NL) observed 2355 UTC 17 February 2019
Temperature: 6.0°C (43°F)
Dewpoint: -1.0°C (30°F) [RH = 61%]
Pressure (altimeter): 30.09 inches Hg (1019.0 mb)
Winds: from the SSW (200 degrees) at 5 MPH (4 knots; 2.1 m/s)
Visibility: 6 or more miles (10+ km)
Ceiling: at least 12,000 feet AGL
Clouds: sky clear below 12,000 feet AGL
Weather: no significant weather observed at this time

METAR text: EHEH 172325Z AUTO 19004KT 9999 FEW400 06/M01 Q1019 BLU
Conditions at: EHEH (EINDHOVEN RNLAFB, NL) observed 2325 UTC 17 February 2019
Temperature: 6.0°C (43°F)
Dewpoint: -1.0°C (30°F) [RH = 61%]
Pressure (altimeter): 30.09 inches Hg (1019.0 mb)
Winds: from the S (190 degrees) at 5 MPH (4 knots; 2.1 m/s)
Visibility: 6 or more miles (10+ km)
Ceiling: at least 12,000 feet AGL
Clouds: few clouds at 40000 feet AGL
Weather: no significant weather observed at this time

METAR text: EHEH 172255Z AUTO 18004KT 9999 BKN390 06/M01 Q1019 BLU
Conditions at: EHEH (EINDHOVEN RNLAFB, NL) observed 2255 UTC 17 February 2019
Temperature: 6.0°C (43°F)
Dewpoint: -1.0°C (30°F) [RH = 61%]
Pressure (altimeter): 30.09 inches Hg (1019.0 mb)
Winds: from the S (180 degrees) at 5 MPH (4 knots; 2.1 m/s)
Visibility: 6 or more miles (10+ km)
Ceiling: 39000 feet AGL
Clouds: broken clouds at 39000 feet AGL
Weather: no significant weather observed at this time

METAR text: EHEH 172225Z AUTO 19004KT 9999 OVC370 06/M01 Q1019 BLU
Conditions at: EHEH (EINDHOVEN RNLAFB, NL) observed 2225 UTC 17 February 2019
Temperature: 6.0°C (43°F)
Dewpoint: -1.0°C (30°F) [RH = 61%]
Pressure (altimeter): 30.09 inches Hg (1019.0 mb)
Winds: from the S (190 degrees) at 5 MPH (4 knots; 2.1 m/s)
Visibility: 6 or more miles (10+ km)
Ceiling: 37000 feet AGL
Clouds: overcast cloud deck at 37000 feet AGL
Weather: no significant weather observed at this time

Forecast for: EHEH (EINDHOVEN RNLAFB, NL)
Text: TAF EHEH 190544Z 1906/2012 23008KT CAVOK
Forecast period: 0600 to 1000 UTC 19 February 2019
Forecast type: FROM: standard forecast or significant change
Winds: from the SW (230 degrees) at 9 MPH (8 knots; 4.1 m/s)
Visibility: 6 or more miles 10+ km)
Ceiling: unknown
Clouds: missing
Weather: NSW  (no significant weather)
Text: PROB30
Forecast period: 0600 to 0900 UTC 19 February 2019
Forecast type: TEMPORARY: The following changes expected for less than half the time period
Visibility: missing
Ceiling: at least 12,000 feet AGL
Clouds: few clouds at 500 feet AGL
scattered clouds at 800 feet AGL
Weather: no significant weather forecast for this period
Text: TEMPO 1906/1909 FEW005 SCT008
Forecast period: 0900 to 1100 UTC 19 February 2019
Forecast type: TEMPORARY: The following changes expected for less than half the time period
Visibility: missing
Ceiling: at least 12,000 feet AGL
Clouds: scattered clouds at 1200 feet AGL
Weather: no significant weather forecast for this period
Text: PROB40
Forecast period: 0900 to 1700 UTC 19 February 2019
Forecast type: TEMPORARY: The following changes expected for less than half the time period
Winds: from the WSW (240 degrees) at 12 MPH (10 knots; 5.1 m/s)
gusting to 25 MPH (22 knots; 11.3 m/s)
Visibility: missing
Ceiling: unknown
Clouds: missing
Weather: no significant weather forecast for this period
Text: TEMPO 1909/1911 SCT012
Forecast period: 1000 UTC 19 February 2019 to 1200 UTC 20 February 2019
Forecast type: BECOMING: Conditions expected to become as follows by 1200 UTC 19 February 2019
Winds: from the SW (230 degrees) at 9 MPH (8 knots; 4.1 m/s)
Visibility: 6 or more miles 10+ km)
Ceiling: at least 12,000 feet AGL
Clouds: scattered clouds at 2000 feet AGL
Weather: NSW  (no significant weather)